sensor_id;sensor_type;location;lat;lon;timestamp;temperature;humidity
37794;DHT22;23632;48.826;15.176;2022-07-29T00:01:53;21.20;56.60
37794;DHT22;23632;48.826;15.176;2022-07-29T00:04:20;21.20;56.70
37794;DHT22;23632;48.826;15.176;2022-07-29T00:06:48;21.20;56.80
37794;DHT22;23632;48.826;15.176;2022-07-29T00:09:15;21.20;56.90
37794;DHT22;23632;48.826;15.176;2022-07-29T00:11:42;21.10;56.90
37794;DHT22;23632;48.826;15.176;2022-07-29T00:14:10;21.10;57.10
37794;DHT22;23632;48.826;15.176;2022-07-29T00:16:37;21.10;57.20
37794;DHT22;23632;48.826;15.176;2022-07-29T00:19:05;21.10;57.20
37794;DHT22;23632;48.826;15.176;2022-07-29T00:21:33;21.10;57.30
37794;DHT22;23632;48.826;15.176;2022-07-29T00:24:00;21.10;57.40
37794;DHT22;23632;48.826;15.176;2022-07-29T00:26:28;21.10;57.40
37794;DHT22;23632;48.826;15.176;2022-07-29T00:29:03;21.00;57.30
37794;DHT22;23632;48.826;15.176;2022-07-29T00:31:51;21.00;57.70
37794;DHT22;23632;48.826;15.176;2022-07-29T00:34:18;21.00;57.30
37794;DHT22;23632;48.826;15.176;2022-07-29T00:37:04;21.00;57.30
37794;DHT22;23632;48.826;15.176;2022-07-29T00:39:33;21.00;57.40
37794;DHT22;23632;48.826;15.176;2022-07-29T00:42:03;21.00;57.70
37794;DHT22;23632;48.826;15.176;2022-07-29T00:44:35;21.00;57.80
37794;DHT22;23632;48.826;15.176;2022-07-29T00:47:03;20.90;57.50
37794;DHT22;23632;48.826;15.176;2022-07-29T00:49:30;20.90;57.80
37794;DHT22;23632;48.826;15.176;2022-07-29T00:51:57;20.90;57.90
37794;DHT22;23632;48.826;15.176;2022-07-29T00:54:27;20.90;58.00
37794;DHT22;23632;48.826;15.176;2022-07-29T00:56:58;20.90;58.10
37794;DHT22;23632;48.826;15.176;2022-07-29T00:59:28;20.90;58.50
37794;DHT22;23632;48.826;15.176;2022-07-29T01:02:02;20.90;58.60
37794;DHT22;23632;48.826;15.176;2022-07-29T01:04:31;20.90;58.50
37794;DHT22;23632;48.826;15.176;2022-07-29T01:07:01;20.80;58.40
37794;DHT22;23632;48.826;15.176;2022-07-29T01:09:29;20.80;58.50
37794;DHT22;23632;48.826;15.176;2022-07-29T01:12:15;20.80;58.40
37794;DHT22;23632;48.826;15.176;2022-07-29T01:14:45;20.80;58.50
37794;DHT22;23632;48.826;15.176;2022-07-29T01:30:59;20.80;58.80
37794;DHT22;23632;48.826;15.176;2022-07-29T01:33:29;20.70;58.50
37794;DHT22;23632;48.826;15.176;2022-07-29T01:36:47;20.70;58.90
37794;DHT22;23632;48.826;15.176;2022-07-29T01:39:30;20.70;59.00
37794;DHT22;23632;48.826;15.176;2022-07-29T01:42:23;20.60;60.20
37794;DHT22;23632;48.826;15.176;2022-07-29T01:48:35;20.50;59.40
37794;DHT22;23632;48.826;15.176;2022-07-29T01:51:03;20.40;59.30
37794;DHT22;23632;48.826;15.176;2022-07-29T01:53:42;20.30;59.50
37794;DHT22;23632;48.826;15.176;2022-07-29T01:56:14;20.20;59.40
37794;DHT22;23632;48.826;15.176;2022-07-29T01:58:45;20.20;59.40
37794;DHT22;23632;48.826;15.176;2022-07-29T02:01:14;20.10;59.60
37794;DHT22;23632;48.826;15.176;2022-07-29T02:03:44;20.00;59.60
37794;DHT22;23632;48.826;15.176;2022-07-29T02:06:13;20.00;59.60
37794;DHT22;23632;48.826;15.176;2022-07-29T02:08:44;19.90;59.60
37794;DHT22;23632;48.826;15.176;2022-07-29T02:11:11;19.90;59.80
37794;DHT22;23632;48.826;15.176;2022-07-29T02:13:39;19.80;59.70
37794;DHT22;23632;48.826;15.176;2022-07-29T02:16:08;19.80;59.80
37794;DHT22;23632;48.826;15.176;2022-07-29T02:18:37;19.70;60.00
37794;DHT22;23632;48.826;15.176;2022-07-29T02:21:06;19.70;60.10
37794;DHT22;23632;48.826;15.176;2022-07-29T02:23:42;19.70;60.10
37794;DHT22;23632;48.826;15.176;2022-07-29T02:26:18;19.60;60.20
37794;DHT22;23632;48.826;15.176;2022-07-29T02:28:48;19.60;60.40
37794;DHT22;23632;48.826;15.176;2022-07-29T02:31:19;19.60;60.50
37794;DHT22;23632;48.826;15.176;2022-07-29T02:33:53;19.60;60.90
37794;DHT22;23632;48.826;15.176;2022-07-29T02:36:22;19.50;60.80
37794;DHT22;23632;48.826;15.176;2022-07-29T02:38:50;19.50;61.00
37794;DHT22;23632;48.826;15.176;2022-07-29T02:41:30;19.50;60.80
37794;DHT22;23632;48.826;15.176;2022-07-29T02:44:06;19.50;61.10
37794;DHT22;23632;48.826;15.176;2022-07-29T02:49:42;19.40;61.50
37794;DHT22;23632;48.826;15.176;2022-07-29T02:52:26;19.40;61.60
37794;DHT22;23632;48.826;15.176;2022-07-29T02:55:01;19.40;61.50
37794;DHT22;23632;48.826;15.176;2022-07-29T02:57:42;19.40;61.20
37794;DHT22;23632;48.826;15.176;2022-07-29T03:00:23;19.40;61.80
37794;DHT22;23632;48.826;15.176;2022-07-29T03:02:57;19.40;61.60
37794;DHT22;23632;48.826;15.176;2022-07-29T03:05:27;19.30;61.50
37794;DHT22;23632;48.826;15.176;2022-07-29T03:08:04;19.30;61.50
37794;DHT22;23632;48.826;15.176;2022-07-29T03:10:33;19.30;61.80
37794;DHT22;23632;48.826;15.176;2022-07-29T03:13:01;19.20;61.40
37794;DHT22;23632;48.826;15.176;2022-07-29T03:15:29;19.20;61.50
37794;DHT22;23632;48.826;15.176;2022-07-29T03:17:56;19.20;61.50
37794;DHT22;23632;48.826;15.176;2022-07-29T03:20:25;19.20;61.50
37794;DHT22;23632;48.826;15.176;2022-07-29T03:22:53;19.20;61.70
37794;DHT22;23632;48.826;15.176;2022-07-29T03:25:21;19.20;61.60
37794;DHT22;23632;48.826;15.176;2022-07-29T03:27:48;19.30;61.70
37794;DHT22;23632;48.826;15.176;2022-07-29T03:30:15;19.30;61.80
37794;DHT22;23632;48.826;15.176;2022-07-29T03:32:52;19.30;61.70
37794;DHT22;23632;48.826;15.176;2022-07-29T03:35:22;19.40;61.90
37794;DHT22;23632;48.826;15.176;2022-07-29T03:37:49;19.40;61.90
37794;DHT22;23632;48.826;15.176;2022-07-29T03:40:26;19.40;61.90
37794;DHT22;23632;48.826;15.176;2022-07-29T03:43:02;19.50;62.40
37794;DHT22;23632;48.826;15.176;2022-07-29T03:45:31;19.50;62.10
37794;DHT22;23632;48.826;15.176;2022-07-29T03:48:06;19.50;62.10
37794;DHT22;23632;48.826;15.176;2022-07-29T03:50:35;19.50;62.60
37794;DHT22;23632;48.826;15.176;2022-07-29T03:53:03;19.50;61.90
37794;DHT22;23632;48.826;15.176;2022-07-29T03:55:36;19.50;62.00
37794;DHT22;23632;48.826;15.176;2022-07-29T03:58:07;19.50;62.30
37794;DHT22;23632;48.826;15.176;2022-07-29T04:00:36;19.50;62.10
37794;DHT22;23632;48.826;15.176;2022-07-29T04:03:04;19.50;62.20
37794;DHT22;23632;48.826;15.176;2022-07-29T04:05:37;19.50;62.20
37794;DHT22;23632;48.826;15.176;2022-07-29T04:08:05;19.40;62.10
37794;DHT22;23632;48.826;15.176;2022-07-29T04:10:32;19.40;62.10
37794;DHT22;23632;48.826;15.176;2022-07-29T04:13:01;19.40;62.30
37794;DHT22;23632;48.826;15.176;2022-07-29T04:15:29;19.40;62.30
37794;DHT22;23632;48.826;15.176;2022-07-29T04:17:58;19.50;62.30
37794;DHT22;23632;48.826;15.176;2022-07-29T04:20:26;19.50;62.60
37794;DHT22;23632;48.826;15.176;2022-07-29T04:22:53;19.50;62.60
37794;DHT22;23632;48.826;15.176;2022-07-29T04:25:20;19.50;62.60
37794;DHT22;23632;48.826;15.176;2022-07-29T04:27:47;19.60;62.80
37794;DHT22;23632;48.826;15.176;2022-07-29T04:30:30;19.70;63.00
37794;DHT22;23632;48.826;15.176;2022-07-29T04:32:59;19.80;63.10
37794;DHT22;23632;48.826;15.176;2022-07-29T04:35:29;19.90;63.00
37794;DHT22;23632;48.826;15.176;2022-07-29T04:38:05;20.00;63.00
37794;DHT22;23632;48.826;15.176;2022-07-29T04:40:41;20.00;62.70
37794;DHT22;23632;48.826;15.176;2022-07-29T04:43:08;20.20;63.10
37794;DHT22;23632;48.826;15.176;2022-07-29T04:45:38;20.30;62.80
37794;DHT22;23632;48.826;15.176;2022-07-29T04:48:05;20.40;62.60
37794;DHT22;23632;48.826;15.176;2022-07-29T04:50:32;20.50;62.70
37794;DHT22;23632;48.826;15.176;2022-07-29T04:53:00;20.60;62.50
37794;DHT22;23632;48.826;15.176;2022-07-29T04:55:27;20.70;62.30
37794;DHT22;23632;48.826;15.176;2022-07-29T04:57:54;20.80;62.30
37794;DHT22;23632;48.826;15.176;2022-07-29T05:00:22;20.90;62.50
37794;DHT22;23632;48.826;15.176;2022-07-29T05:02:59;21.00;62.30
37794;DHT22;23632;48.826;15.176;2022-07-29T05:05:26;21.10;62.30
37794;DHT22;23632;48.826;15.176;2022-07-29T05:07:54;21.20;62.50
37794;DHT22;23632;48.826;15.176;2022-07-29T05:10:22;21.30;62.30
37794;DHT22;23632;48.826;15.176;2022-07-29T05:12:49;21.30;62.20
37794;DHT22;23632;48.826;15.176;2022-07-29T05:15:17;21.40;62.20
37794;DHT22;23632;48.826;15.176;2022-07-29T05:17:44;21.50;62.10
37794;DHT22;23632;48.826;15.176;2022-07-29T05:20:12;21.50;62.20
37794;DHT22;23632;48.826;15.176;2022-07-29T05:22:39;21.60;62.20
37794;DHT22;23632;48.826;15.176;2022-07-29T05:25:06;21.70;62.00
37794;DHT22;23632;48.826;15.176;2022-07-29T05:27:36;21.80;61.90
37794;DHT22;23632;48.826;15.176;2022-07-29T05:30:04;21.90;61.90
37794;DHT22;23632;48.826;15.176;2022-07-29T05:32:31;22.00;61.90
37794;DHT22;23632;48.826;15.176;2022-07-29T05:34:58;22.00;61.80
37794;DHT22;23632;48.826;15.176;2022-07-29T05:37:26;22.10;61.70
37794;DHT22;23632;48.826;15.176;2022-07-29T05:39:53;22.20;61.80
37794;DHT22;23632;48.826;15.176;2022-07-29T05:42:25;22.30;61.80
37794;DHT22;23632;48.826;15.176;2022-07-29T05:44:53;22.40;61.60
37794;DHT22;23632;48.826;15.176;2022-07-29T05:47:20;22.50;61.50
37794;DHT22;23632;48.826;15.176;2022-07-29T05:49:47;22.50;61.50
37794;DHT22;23632;48.826;15.176;2022-07-29T05:52:15;22.60;61.40
37794;DHT22;23632;48.826;15.176;2022-07-29T05:54:43;22.70;62.30
37794;DHT22;23632;48.826;15.176;2022-07-29T05:57:23;22.80;61.30
37794;DHT22;23632;48.826;15.176;2022-07-29T05:59:51;22.80;61.10
37794;DHT22;23632;48.826;15.176;2022-07-29T06:02:18;22.90;61.10
37794;DHT22;23632;48.826;15.176;2022-07-29T06:04:46;22.90;61.00
37794;DHT22;23632;48.826;15.176;2022-07-29T06:07:13;23.00;60.90
37794;DHT22;23632;48.826;15.176;2022-07-29T06:09:40;23.00;60.90
37794;DHT22;23632;48.826;15.176;2022-07-29T06:12:08;23.00;60.70
37794;DHT22;23632;48.826;15.176;2022-07-29T06:14:36;23.10;60.70
37794;DHT22;23632;48.826;15.176;2022-07-29T06:17:04;23.10;60.80
37794;DHT22;23632;48.826;15.176;2022-07-29T06:19:34;23.10;61.70
37794;DHT22;23632;48.826;15.176;2022-07-29T06:22:03;23.20;60.90
37794;DHT22;23632;48.826;15.176;2022-07-29T06:24:30;23.30;61.10
37794;DHT22;23632;48.826;15.176;2022-07-29T06:26:57;23.30;61.10
37794;DHT22;23632;48.826;15.176;2022-07-29T06:29:25;23.40;61.00
37794;DHT22;23632;48.826;15.176;2022-07-29T06:31:52;23.50;60.80
37794;DHT22;23632;48.826;15.176;2022-07-29T06:34:19;23.60;60.70
37794;DHT22;23632;48.826;15.176;2022-07-29T06:36:46;23.70;60.60
37794;DHT22;23632;48.826;15.176;2022-07-29T06:39:14;23.80;60.60
37794;DHT22;23632;48.826;15.176;2022-07-29T06:41:49;23.90;60.50
37794;DHT22;23632;48.826;15.176;2022-07-29T06:44:17;24.00;60.30
37794;DHT22;23632;48.826;15.176;2022-07-29T06:46:46;24.00;60.30
37794;DHT22;23632;48.826;15.176;2022-07-29T06:49:15;24.10;60.30
37794;DHT22;23632;48.826;15.176;2022-07-29T06:51:43;24.10;60.20
37794;DHT22;23632;48.826;15.176;2022-07-29T06:54:10;24.20;60.10
37794;DHT22;23632;48.826;15.176;2022-07-29T06:56:37;24.20;60.00
37794;DHT22;23632;48.826;15.176;2022-07-29T06:59:08;24.20;59.80
37794;DHT22;23632;48.826;15.176;2022-07-29T07:01:38;24.20;59.70
37794;DHT22;23632;48.826;15.176;2022-07-29T07:04:07;24.20;59.80
37794;DHT22;23632;48.826;15.176;2022-07-29T07:06:35;24.20;59.80
37794;DHT22;23632;48.826;15.176;2022-07-29T07:09:03;24.20;59.80
37794;DHT22;23632;48.826;15.176;2022-07-29T07:11:31;24.20;59.90
37794;DHT22;23632;48.826;15.176;2022-07-29T07:13:58;24.20;59.80
37794;DHT22;23632;48.826;15.176;2022-07-29T07:16:40;24.20;59.80
37794;DHT22;23632;48.826;15.176;2022-07-29T07:19:07;24.20;59.80
37794;DHT22;23632;48.826;15.176;2022-07-29T07:21:34;24.20;59.80
37794;DHT22;23632;48.826;15.176;2022-07-29T07:24:02;24.20;59.70
37794;DHT22;23632;48.826;15.176;2022-07-29T07:26:29;24.20;59.90
37794;DHT22;23632;48.826;15.176;2022-07-29T07:28:57;24.20;59.90
37794;DHT22;23632;48.826;15.176;2022-07-29T07:31:26;24.20;60.00
37794;DHT22;23632;48.826;15.176;2022-07-29T07:33:54;24.20;59.90
37794;DHT22;23632;48.826;15.176;2022-07-29T07:36:22;24.20;60.10
37794;DHT22;23632;48.826;15.176;2022-07-29T07:38:49;24.20;60.00
37794;DHT22;23632;48.826;15.176;2022-07-29T07:41:17;24.30;60.10
37794;DHT22;23632;48.826;15.176;2022-07-29T07:43:44;24.30;60.10
37794;DHT22;23632;48.826;15.176;2022-07-29T07:46:12;24.30;60.10
37794;DHT22;23632;48.826;15.176;2022-07-29T07:48:39;24.40;60.10
37794;DHT22;23632;48.826;15.176;2022-07-29T07:51:06;24.40;60.10
37794;DHT22;23632;48.826;15.176;2022-07-29T07:53:34;24.50;60.10
37794;DHT22;23632;48.826;15.176;2022-07-29T07:56:01;24.50;60.00
37794;DHT22;23632;48.826;15.176;2022-07-29T07:58:38;24.50;59.90
37794;DHT22;23632;48.826;15.176;2022-07-29T08:01:05;24.60;60.10
37794;DHT22;23632;48.826;15.176;2022-07-29T08:03:33;24.60;60.30
37794;DHT22;23632;48.826;15.176;2022-07-29T08:06:01;24.60;59.70
37794;DHT22;23632;48.826;15.176;2022-07-29T08:08:30;24.70;59.80
37794;DHT22;23632;48.826;15.176;2022-07-29T08:10:57;24.80;59.70
37794;DHT22;23632;48.826;15.176;2022-07-29T08:13:31;24.80;59.80
37794;DHT22;23632;48.826;15.176;2022-07-29T08:15:59;24.80;59.80
37794;DHT22;23632;48.826;15.176;2022-07-29T08:18:39;24.90;59.90
37794;DHT22;23632;48.826;15.176;2022-07-29T08:21:07;24.90;59.70
37794;DHT22;23632;48.826;15.176;2022-07-29T08:23:35;25.00;59.80
37794;DHT22;23632;48.826;15.176;2022-07-29T08:26:13;25.00;59.80
37794;DHT22;23632;48.826;15.176;2022-07-29T08:28:43;25.00;59.70
37794;DHT22;23632;48.826;15.176;2022-07-29T08:31:17;25.10;59.70
37794;DHT22;23632;48.826;15.176;2022-07-29T08:33:44;25.10;59.70
37794;DHT22;23632;48.826;15.176;2022-07-29T08:36:12;25.10;59.40
37794;DHT22;23632;48.826;15.176;2022-07-29T08:38:40;25.20;59.40
37794;DHT22;23632;48.826;15.176;2022-07-29T08:41:07;25.20;59.40
37794;DHT22;23632;48.826;15.176;2022-07-29T08:43:34;25.20;59.60
37794;DHT22;23632;48.826;15.176;2022-07-29T08:46:04;25.20;59.40
37794;DHT22;23632;48.826;15.176;2022-07-29T08:48:31;25.20;59.50
37794;DHT22;23632;48.826;15.176;2022-07-29T08:50:59;25.20;59.50
37794;DHT22;23632;48.826;15.176;2022-07-29T08:53:28;25.30;59.50
37794;DHT22;23632;48.826;15.176;2022-07-29T08:55:57;25.20;59.30
37794;DHT22;23632;48.826;15.176;2022-07-29T08:58:25;25.30;59.30
37794;DHT22;23632;48.826;15.176;2022-07-29T09:00:55;25.30;59.30
37794;DHT22;23632;48.826;15.176;2022-07-29T09:03:25;25.30;59.10
37794;DHT22;23632;48.826;15.176;2022-07-29T09:05:58;25.30;59.30
37794;DHT22;23632;48.826;15.176;2022-07-29T09:08:26;25.30;59.40
37794;DHT22;23632;48.826;15.176;2022-07-29T09:10:54;25.30;59.40
37794;DHT22;23632;48.826;15.176;2022-07-29T09:13:25;25.30;59.40
37794;DHT22;23632;48.826;15.176;2022-07-29T09:15:52;25.30;59.40
37794;DHT22;23632;48.826;15.176;2022-07-29T09:18:34;25.40;59.50
37794;DHT22;23632;48.826;15.176;2022-07-29T09:21:04;25.40;59.20
37794;DHT22;23632;48.826;15.176;2022-07-29T09:26:44;25.50;59.30
37794;DHT22;23632;48.826;15.176;2022-07-29T09:29:14;25.60;59.20
37794;DHT22;23632;48.826;15.176;2022-07-29T09:31:46;25.70;59.20
37794;DHT22;23632;48.826;15.176;2022-07-29T09:34:16;25.80;59.10
37794;DHT22;23632;48.826;15.176;2022-07-29T09:36:49;25.90;58.80
37794;DHT22;23632;48.826;15.176;2022-07-29T09:42:04;26.10;58.50
37794;DHT22;23632;48.826;15.176;2022-07-29T09:44:44;26.20;58.60
37794;DHT22;23632;48.826;15.176;2022-07-29T09:47:13;26.30;58.50
37794;DHT22;23632;48.826;15.176;2022-07-29T09:49:55;26.40;58.30
37794;DHT22;23632;48.826;15.176;2022-07-29T09:52:28;26.60;58.00
37794;DHT22;23632;48.826;15.176;2022-07-29T09:55:06;26.70;57.90
37794;DHT22;23632;48.826;15.176;2022-07-29T09:57:35;26.80;57.90
37794;DHT22;23632;48.826;15.176;2022-07-29T10:02:42;27.10;57.30
37794;DHT22;23632;48.826;15.176;2022-07-29T10:05:25;27.10;57.10
37794;DHT22;23632;48.826;15.176;2022-07-29T10:08:02;27.30;57.40
37794;DHT22;23632;48.826;15.176;2022-07-29T10:10:32;27.40;56.70
37794;DHT22;23632;48.826;15.176;2022-07-29T10:13:03;27.50;56.60
37794;DHT22;23632;48.826;15.176;2022-07-29T10:15:42;27.70;56.90
37794;DHT22;23632;48.826;15.176;2022-07-29T10:18:13;27.80;56.70
37794;DHT22;23632;48.826;15.176;2022-07-29T10:20:41;28.00;56.50
37794;DHT22;23632;48.826;15.176;2022-07-29T10:23:09;28.10;56.10
37794;DHT22;23632;48.826;15.176;2022-07-29T10:25:36;28.30;56.10
37794;DHT22;23632;48.826;15.176;2022-07-29T10:28:05;28.40;55.80
37794;DHT22;23632;48.826;15.176;2022-07-29T10:30:33;28.50;56.80
37794;DHT22;23632;48.826;15.176;2022-07-29T10:39:22;28.90;54.60
37794;DHT22;23632;48.826;15.176;2022-07-29T10:45:01;29.10;54.20
37794;DHT22;23632;48.826;15.176;2022-07-29T10:47:30;29.10;54.40
37794;DHT22;23632;48.826;15.176;2022-07-29T10:50:05;29.20;54.50
37794;DHT22;23632;48.826;15.176;2022-07-29T10:52:52;29.30;54.00
37794;DHT22;23632;48.826;15.176;2022-07-29T10:55:33;29.30;54.30
37794;DHT22;23632;48.826;15.176;2022-07-29T10:58:18;29.30;53.90
37794;DHT22;23632;48.826;15.176;2022-07-29T11:00:47;29.50;53.80
37794;DHT22;23632;48.826;15.176;2022-07-29T11:03:44;29.50;53.50
37794;DHT22;23632;48.826;15.176;2022-07-29T11:06:19;29.60;53.90
37794;DHT22;23632;48.826;15.176;2022-07-29T11:09:15;29.70;53.40
37794;DHT22;23632;48.826;15.176;2022-07-29T11:12:04;29.80;53.60
37794;DHT22;23632;48.826;15.176;2022-07-29T11:14:55;29.90;54.30
37794;DHT22;23632;48.826;15.176;2022-07-29T11:17:28;30.00;52.70
37794;DHT22;23632;48.826;15.176;2022-07-29T11:22:59;30.30;52.70
37794;DHT22;23632;48.826;15.176;2022-07-29T11:25:28;30.40;52.30
37794;DHT22;23632;48.826;15.176;2022-07-29T11:28:19;30.50;53.20
37794;DHT22;23632;48.826;15.176;2022-07-29T11:30:52;30.60;51.70
37794;DHT22;23632;48.826;15.176;2022-07-29T11:33:33;30.70;51.20
37794;DHT22;23632;48.826;15.176;2022-07-29T11:36:20;30.90;51.40
37794;DHT22;23632;48.826;15.176;2022-07-29T11:39:24;31.00;51.40
37794;DHT22;23632;48.826;15.176;2022-07-29T11:45:03;31.30;51.60
37794;DHT22;23632;48.826;15.176;2022-07-29T11:47:57;31.50;51.10
37794;DHT22;23632;48.826;15.176;2022-07-29T11:50:32;31.70;50.50
37794;DHT22;23632;48.826;15.176;2022-07-29T11:53:10;31.90;50.00
37794;DHT22;23632;48.826;15.176;2022-07-29T11:55:40;32.10;49.40
37794;DHT22;23632;48.826;15.176;2022-07-29T11:58:21;32.20;48.70
37794;DHT22;23632;48.826;15.176;2022-07-29T12:00:52;32.30;48.80
37794;DHT22;23632;48.826;15.176;2022-07-29T12:03:26;32.40;49.00
37794;DHT22;23632;48.826;15.176;2022-07-29T12:06:01;32.40;48.90
37794;DHT22;23632;48.826;15.176;2022-07-29T12:08:41;32.40;48.90
37794;DHT22;23632;48.826;15.176;2022-07-29T12:11:20;32.30;48.80
37794;DHT22;23632;48.826;15.176;2022-07-29T12:13:52;32.20;48.70
37794;DHT22;23632;48.826;15.176;2022-07-29T12:16:20;32.10;48.80
37794;DHT22;23632;48.826;15.176;2022-07-29T12:18:56;32.00;48.60
37794;DHT22;23632;48.826;15.176;2022-07-29T12:21:25;31.90;48.50
37794;DHT22;23632;48.826;15.176;2022-07-29T12:23:55;31.70;48.40
37794;DHT22;23632;48.826;15.176;2022-07-29T12:26:34;31.60;48.30
37794;DHT22;23632;48.826;15.176;2022-07-29T12:29:03;31.40;48.40
37794;DHT22;23632;48.826;15.176;2022-07-29T12:31:37;31.20;48.60
37794;DHT22;23632;48.826;15.176;2022-07-29T12:34:12;30.90;48.80
37794;DHT22;23632;48.826;15.176;2022-07-29T12:36:41;30.70;49.20
37794;DHT22;23632;48.826;15.176;2022-07-29T12:39:10;30.60;49.60
37794;DHT22;23632;48.826;15.176;2022-07-29T12:41:39;30.40;49.70
37794;DHT22;23632;48.826;15.176;2022-07-29T12:44:06;30.40;49.90
37794;DHT22;23632;48.826;15.176;2022-07-29T12:46:33;30.30;50.00
37794;DHT22;23632;48.826;15.176;2022-07-29T12:49:02;30.20;50.30
37794;DHT22;23632;48.826;15.176;2022-07-29T12:51:35;30.20;50.20
37794;DHT22;23632;48.826;15.176;2022-07-29T12:54:04;30.30;50.50
37794;DHT22;23632;48.826;15.176;2022-07-29T12:56:32;30.40;50.50
37794;DHT22;23632;48.826;15.176;2022-07-29T12:59:17;30.50;50.60
37794;DHT22;23632;48.826;15.176;2022-07-29T13:01:47;30.80;50.20
37794;DHT22;23632;48.826;15.176;2022-07-29T13:04:33;31.00;50.30
37794;DHT22;23632;48.826;15.176;2022-07-29T13:07:05;31.30;50.00
37794;DHT22;23632;48.826;15.176;2022-07-29T13:09:43;31.60;49.40
37794;DHT22;23632;48.826;15.176;2022-07-29T13:12:14;31.80;49.20
37794;DHT22;23632;48.826;15.176;2022-07-29T13:14:44;31.90;48.50
37794;DHT22;23632;48.826;15.176;2022-07-29T13:17:19;32.20;48.90
37794;DHT22;23632;48.826;15.176;2022-07-29T13:19:51;32.30;48.80
37794;DHT22;23632;48.826;15.176;2022-07-29T13:22:35;32.50;49.00
37794;DHT22;23632;48.826;15.176;2022-07-29T13:25:03;32.70;48.30
37794;DHT22;23632;48.826;15.176;2022-07-29T13:27:35;32.90;48.10
37794;DHT22;23632;48.826;15.176;2022-07-29T13:30:06;33.10;47.90
37794;DHT22;23632;48.826;15.176;2022-07-29T13:32:35;33.30;48.00
37794;DHT22;23632;48.826;15.176;2022-07-29T13:35:06;33.70;47.90
37794;DHT22;23632;48.826;15.176;2022-07-29T13:37:35;34.10;47.10
37794;DHT22;23632;48.826;15.176;2022-07-29T13:40:07;34.60;46.60
37794;DHT22;23632;48.826;15.176;2022-07-29T13:42:36;34.90;45.90
37794;DHT22;23632;48.826;15.176;2022-07-29T13:45:04;35.30;45.50
37794;DHT22;23632;48.826;15.176;2022-07-29T13:47:33;35.50;44.90
37794;DHT22;23632;48.826;15.176;2022-07-29T13:50:01;35.70;44.50
37794;DHT22;23632;48.826;15.176;2022-07-29T13:52:28;35.80;44.00
37794;DHT22;23632;48.826;15.176;2022-07-29T13:54:56;36.00;43.80
37794;DHT22;23632;48.826;15.176;2022-07-29T13:57:23;36.30;44.10
37794;DHT22;23632;48.826;15.176;2022-07-29T13:59:50;36.50;43.70
37794;DHT22;23632;48.826;15.176;2022-07-29T14:02:20;36.80;43.10
37794;DHT22;23632;48.826;15.176;2022-07-29T14:04:54;36.90;42.30
37794;DHT22;23632;48.826;15.176;2022-07-29T14:07:22;37.10;42.10
37794;DHT22;23632;48.826;15.176;2022-07-29T14:09:50;37.10;41.90
37794;DHT22;23632;48.826;15.176;2022-07-29T14:12:17;37.10;41.90
37794;DHT22;23632;48.826;15.176;2022-07-29T14:14:45;37.10;42.00
37794;DHT22;23632;48.826;15.176;2022-07-29T14:17:13;37.20;41.60
37794;DHT22;23632;48.826;15.176;2022-07-29T14:19:41;37.20;41.30
37794;DHT22;23632;48.826;15.176;2022-07-29T14:22:09;37.20;41.00
37794;DHT22;23632;48.826;15.176;2022-07-29T14:24:37;37.10;40.90
37794;DHT22;23632;48.826;15.176;2022-07-29T14:27:06;37.00;41.00
37794;DHT22;23632;48.826;15.176;2022-07-29T14:29:36;36.80;40.90
37794;DHT22;23632;48.826;15.176;2022-07-29T14:32:08;36.70;40.90
37794;DHT22;23632;48.826;15.176;2022-07-29T14:34:41;36.60;40.90
37794;DHT22;23632;48.826;15.176;2022-07-29T14:37:09;36.40;41.20
37794;DHT22;23632;48.826;15.176;2022-07-29T14:39:41;36.30;41.20
37794;DHT22;23632;48.826;15.176;2022-07-29T14:42:10;36.20;41.50
37794;DHT22;23632;48.826;15.176;2022-07-29T14:44:39;36.30;42.00
37794;DHT22;23632;48.826;15.176;2022-07-29T14:47:08;36.50;42.40
37794;DHT22;23632;48.826;15.176;2022-07-29T14:49:36;37.00;42.60
37794;DHT22;23632;48.826;15.176;2022-07-29T14:52:04;37.80;42.40
37794;DHT22;23632;48.826;15.176;2022-07-29T14:54:31;38.60;41.60
37794;DHT22;23632;48.826;15.176;2022-07-29T14:56:59;39.60;40.70
37794;DHT22;23632;48.826;15.176;2022-07-29T14:59:27;40.50;39.60
37794;DHT22;23632;48.826;15.176;2022-07-29T15:01:54;41.40;38.90
37794;DHT22;23632;48.826;15.176;2022-07-29T15:04:22;42.20;37.70
37794;DHT22;23632;48.826;15.176;2022-07-29T15:06:49;42.90;36.80
37794;DHT22;23632;48.826;15.176;2022-07-29T15:09:17;43.60;35.80
37794;DHT22;23632;48.826;15.176;2022-07-29T15:11:44;44.20;35.30
37794;DHT22;23632;48.826;15.176;2022-07-29T15:14:11;44.70;34.60
37794;DHT22;23632;48.826;15.176;2022-07-29T15:16:39;45.10;33.80
37794;DHT22;23632;48.826;15.176;2022-07-29T15:19:09;45.50;33.10
37794;DHT22;23632;48.826;15.176;2022-07-29T15:21:37;45.90;32.30
37794;DHT22;23632;48.826;15.176;2022-07-29T15:24:15;46.20;32.50
37794;DHT22;23632;48.826;15.176;2022-07-29T15:26:43;46.50;32.10
37794;DHT22;23632;48.826;15.176;2022-07-29T15:29:10;46.70;32.20
37794;DHT22;23632;48.826;15.176;2022-07-29T15:31:37;46.90;30.90
37794;DHT22;23632;48.826;15.176;2022-07-29T15:34:06;47.10;30.60
37794;DHT22;23632;48.826;15.176;2022-07-29T15:36:33;47.30;31.50
37794;DHT22;23632;48.826;15.176;2022-07-29T15:39:19;47.30;30.10
37794;DHT22;23632;48.826;15.176;2022-07-29T15:41:48;47.50;29.90
37794;DHT22;23632;48.826;15.176;2022-07-29T15:44:15;47.60;29.80
37794;DHT22;23632;48.826;15.176;2022-07-29T15:46:42;47.70;29.40
37794;DHT22;23632;48.826;15.176;2022-07-29T15:49:32;47.90;29.10
37794;DHT22;23632;48.826;15.176;2022-07-29T15:52:17;48.00;28.60
37794;DHT22;23632;48.826;15.176;2022-07-29T15:54:53;48.10;28.50
37794;DHT22;23632;48.826;15.176;2022-07-29T15:57:21;48.10;28.20
37794;DHT22;23632;48.826;15.176;2022-07-29T15:59:49;48.10;28.00
37794;DHT22;23632;48.826;15.176;2022-07-29T16:02:17;48.10;28.20
37794;DHT22;23632;48.826;15.176;2022-07-29T16:04:44;48.00;27.90
37794;DHT22;23632;48.826;15.176;2022-07-29T16:07:11;48.00;27.80
37794;DHT22;23632;48.826;15.176;2022-07-29T16:09:40;48.00;27.80
37794;DHT22;23632;48.826;15.176;2022-07-29T16:12:08;48.00;27.50
37794;DHT22;23632;48.826;15.176;2022-07-29T16:14:42;48.00;27.50
37794;DHT22;23632;48.826;15.176;2022-07-29T16:17:10;47.90;27.30
37794;DHT22;23632;48.826;15.176;2022-07-29T16:19:42;47.80;27.50
37794;DHT22;23632;48.826;15.176;2022-07-29T16:22:10;47.70;27.40
37794;DHT22;23632;48.826;15.176;2022-07-29T16:24:38;47.50;27.40